Airfield :
LOGIN :

Register | Disclaimer

   EN    FR    IT 

 










Legend :    VFR   Marginal VFR   IFR   Intensive IFR   Very Intensive IFR
Visi :
Ceiling :
>= 8 km
>= 3000ft
5 to 8 km
1000 to 3000 ft
1500m to 5 km
500 to 1000 ft
800 to 1500m
200 to 500 ft
< 800m
< 200 ft
Symbols :   Thunderstorms  Fog  Heavy snow  Heavy precipitations  Wind > 20 kt
SIGMETs :     Misc.  Thunderstorms  Icing  Turbulence  Mountain Waves  Volcanic Ashes







- Airport Elevation : 50 ft
- IATA code : KOI
- Download approach charts


EGPA - Kirkwall

CURRENT METAR :
  • 181750Z 29007KT 2500 SHSN SCT006 BKN008CB 01/M00 Q0992 R/SNOCLO

EXPIRED METARs :
  • 181720Z 25005G17KT 8000 -SHSN SCT008 BKN010CB 02/00 Q0992 R/SNOCLO
  • 181650Z 28004KT 8000 VCSH SCT008 BKN010CB 02/00 Q0992 R/SNOCLO
  • 181620Z VRB02KT 8000 -SHRASN SCT008 BKN010CB 02/00 Q0992 RESHRA RESHSN R/SNOCLO
  • 181550Z 32007KT 280V340 4000 SHRASN FEW008CB SCT011 BKN035 02/00 Q0991
  • 181520Z 26003KT 9999 VCSH FEW015CB FEW025 SCT035 02/M00 Q0991

TAF TAF EGPA
Valid from the 18 at 18:00 until the 19 at 03:00 UTC


181657Z 1818/1903 27007KT 9999 FEW015
TEMPO 1818/1903 5000 -SHRASN BKN012CB
PROB30
TEMPO 1818/1903 4000 SHSN SHGS BKN008
No reported NOTAMs for that airfield.



MET'MAP, your aeronautical weather chart ! - Copyright ORBIFLY December 2007 - Disclaimer

ORBIFLY MET'MAP TEAM :

Programming & Development : Alexandra Zaïnal
Concept & Development : Baudouin d'Aumeries
Co-Development & Prog : Marc-Olivier Méhu
Technical & hardware support : Manuel Goepfert

Contact : metmap@orbifly.com




SOURCES & CREDITS :

   NOAA